LIPR/RMI METAR and TAF weather

Enter ICAO airport designator
Station Type Date Time Source
LIPR METAR 2022/12/04 05:50 UTC NOAA

LIPR 040550Z AUTO 18002KT 0250 R31/0650N FG FEW006/// SCT240/// 07/07 Q1010


Station Type Date Time Source
LIPR Decoded METAR 2022/12/04 05:50 UTC NOAA

Rimini, Italy (LIPR) 44-02N 012-37E 13M
Dec 04, 2022 - 12:50 AM EST / 2022.12.04 0550 UTC
Wind: from the S (180 degrees) at 2 MPH (2 KT):0
Visibility: less than 1 mile:0
Sky conditions: partly cloudy
Weather: fog
Temperature: 44 F (7 C)
Dew Point: 44 F (7 C)
Relative Humidity: 100%
Pressure (altimeter): 29.83 in. Hg (1010 hPa)
ob: LIPR 040550Z AUTO 18002KT 0250 R31/0650N FG FEW006/// SCT240/// 07/07 Q1010
cycle: 6

Station Type Date Time Source
LIPR TAF 2022/12/04 06:21 UTC NOAA

TAF LIPR 040500Z 0406/0506 VRB06KT 0300 FG OVC010
BECMG 0406/0408 2000 BR
BECMG 0410/0412 7000
TEMPO 0418/0424 2000 BR
BECMG 0500/0502 17010KT

Example: see airport list